Time;durP1;ratioP1;P1;durP2;ratioP2;P2;SDS_P1;SDS_P2;PMS_P1;PMS_P2;Temp;Humidity;BMP_temperature;BMP_pressure;BME280_temperature;BME280_humidity;BME280_pressure;Samples;Min_cycle;Max_cycle;Signal;HPM_P1;HPM_P2
2024/01/04 00:00:30;;;;;;;1.70;1.60;;;;;;;-142.06;100.00;64312.41;5041994;28;20221;-80
2024/01/04 00:02:57;;;;;;;1.63;1.53;;;;;;;-142.06;100.00;64312.41;5046794;28;20197;-80
2024/01/04 00:05:24;;;;;;;1.73;1.60;;;;;;;-142.06;100.00;64312.41;5026003;28;20211;-81
2024/01/04 00:07:51;;;;;;;2.20;1.70;;;;;;;-142.06;100.00;64312.41;5013917;28;20214;-78
2024/01/04 00:10:18;;;;;;;1.90;1.70;;;;;;;-142.06;100.00;64312.41;5042213;28;20208;-79
2024/01/04 00:12:45;;;;;;;2.20;1.63;;;;;;;-142.06;100.00;64312.41;5034228;28;20203;-81
2024/01/04 00:15:12;;;;;;;2.00;1.70;;;;;;;-142.06;100.00;64312.41;5034123;28;20204;-80
2024/01/04 00:17:39;;;;;;;2.50;1.70;;;;;;;-142.06;100.00;64312.41;5032895;28;20197;-79
2024/01/04 00:20:06;;;;;;;1.60;1.33;;;;;;;-142.06;100.00;64312.41;5014938;28;20228;-79
2024/01/04 00:22:33;;;;;;;1.97;1.53;;;;;;;-142.06;100.00;64312.41;5013627;28;20202;-80
2024/01/04 00:25:00;;;;;;;2.00;1.63;;;;;;;-142.06;100.00;64312.41;5050905;28;20216;-80
2024/01/04 00:27:27;;;;;;;2.33;1.50;;;;;;;-142.06;100.00;64312.41;5033539;28;20197;-79
2024/01/04 00:29:54;;;;;;;1.60;1.50;;;;;;;-142.06;100.00;64312.41;5050793;28;20706;-80
2024/01/04 00:32:21;;;;;;;1.20;1.00;;;;;;;-142.06;100.00;64312.41;5025804;28;20669;-79
2024/01/04 00:34:47;;;;;;;1.87;1.10;;;;;;;-142.06;100.00;64312.41;5013398;28;20259;-80
2024/01/04 00:37:14;;;;;;;1.50;1.20;;;;;;;-142.06;100.00;64312.41;5044380;28;20206;-79
2024/01/04 00:39:41;;;;;;;2.17;1.30;;;;;;;-142.06;100.00;64312.41;5033625;28;20217;-79
2024/01/04 00:42:08;;;;;;;1.33;1.10;;;;;;;-142.06;100.00;64312.41;5037796;28;20191;-79
2024/01/04 00:44:35;;;;;;;1.70;1.27;;;;;;;-142.06;100.00;64312.41;5035442;28;20217;-80
2024/01/04 00:47:01;;;;;;;1.30;1.10;;;;;;;-142.06;100.00;64312.41;5037314;28;20236;-79
2024/01/04 00:49:31;;;;;;;1.30;1.20;;;;;;;-142.06;100.00;64312.41;5051566;28;20190;-79
2024/01/04 00:51:58;;;;;;;1.27;1.17;;;;;;;-142.06;100.00;64312.41;5037777;28;20209;-79
2024/01/04 00:54:24;;;;;;;1.47;1.20;;;;;;;-142.06;100.00;64312.41;5026304;28;20197;-79
2024/01/04 00:56:52;;;;;;;1.90;1.10;;;;;;;-142.06;100.00;64312.41;5053379;28;20670;-79
2024/01/04 00:59:19;;;;;;;1.43;1.10;;;;;;;-142.06;100.00;64312.41;5061047;28;20202;-83
2024/01/04 01:01:46;;;;;;;1.37;1.10;;;;;;;-142.06;100.00;64312.41;5058776;28;20185;-83
2024/01/04 01:04:13;;;;;;;1.10;1.00;;;;;;;-142.06;100.00;64312.41;5041076;28;20216;-81
2024/01/04 01:06:39;;;;;;;1.10;1.00;;;;;;;-142.06;100.00;64312.41;5054638;28;20194;-78
2024/01/04 01:09:06;;;;;;;1.10;0.90;;;;;;;-142.06;100.00;64312.41;5040931;28;20669;-81
2024/01/04 01:11:33;;;;;;;0.83;0.80;;;;;;;-142.06;100.00;64312.41;5056026;28;20240;-81
2024/01/04 01:14:00;;;;;;;0.73;0.60;;;;;;;-142.06;100.00;64312.41;5036305;28;20201;-78
2024/01/04 01:16:27;;;;;;;5.97;3.60;;;;;;;-142.06;100.00;64312.41;5054711;28;20198;-79
2024/01/04 01:18:54;;;;;;;0.70;0.67;;;;;;;-142.06;100.00;64312.41;5035809;28;20204;-78
2024/01/04 01:21:21;;;;;;;0.50;0.20;;;;;;;-142.06;100.00;64312.41;5035057;28;20228;-79
2024/01/04 01:23:48;;;;;;;0.73;0.40;;;;;;;-142.06;100.00;64312.41;5038096;28;20231;-80
2024/01/04 01:26:15;;;;;;;0.60;0.40;;;;;;;-142.06;100.00;64312.41;5036729;28;20225;-82
2024/01/04 01:28:42;;;;;;;0.20;0.20;;;;;;;-142.06;100.00;64312.41;5054730;28;20765;-79
2024/01/04 01:31:09;;;;;;;0.53;0.27;;;;;;;-142.06;100.00;64312.41;5032904;28;20575;-79
2024/01/04 01:33:36;;;;;;;0.30;0.20;;;;;;;-142.06;100.00;64312.41;5054254;28;20221;-79
2024/01/04 01:36:06;;;;;;;0.57;0.20;;;;;;;-142.06;100.00;64312.41;5053055;28;20198;-79
2024/01/04 01:38:33;;;;;;;0.63;0.40;;;;;;;-142.06;100.00;64312.41;5046425;28;20201;-79
2024/01/04 01:41:00;;;;;;;1.23;0.10;;;;;;;-142.06;100.00;64312.41;5051147;28;20220;-78
2024/01/04 01:43:29;;;;;;;0.20;0.20;;;;;;;-142.06;100.00;64312.41;5052682;28;20213;-79
2024/01/04 01:45:56;;;;;;;0.40;0.20;;;;;;;-142.06;100.00;64312.41;5053528;28;20189;-78
2024/01/04 01:48:23;;;;;;;0.80;0.20;;;;;;;-142.06;100.00;64312.41;5052705;28;20216;-81
2024/01/04 01:50:50;;;;;;;0.97;0.20;;;;;;;-142.06;100.00;64312.41;5053549;28;20189;-78
2024/01/04 01:53:17;;;;;;;0.53;0.30;;;;;;;-142.06;100.00;64312.41;5034489;28;20221;-78
2024/01/04 01:55:45;;;;;;;0.17;0.10;;;;;;;-142.06;100.00;64312.41;5038804;28;20320;-78
2024/01/04 01:58:12;;;;;;;0.40;0.20;;;;;;;-142.06;100.00;64312.41;5035360;28;20202;-78
2024/01/04 02:00:39;;;;;;;0.50;0.20;;;;;;;-142.06;100.00;64312.41;5019319;28;20311;-78
2024/01/04 02:03:08;;;;;;;0.37;0.20;;;;;;;-142.06;100.00;64312.41;5053380;28;20205;-79
2024/01/04 02:05:35;;;;;;;0.27;0.10;;;;;;;-142.06;100.00;64312.41;5051279;28;20186;-80
2024/01/04 02:08:03;;;;;;;0.30;0.20;;;;;;;-142.06;100.00;64312.41;5035388;28;20209;-79
2024/01/04 02:10:30;;;;;;;0.10;0.10;;;;;;;-142.06;100.00;64312.41;5051877;28;20316;-80
2024/01/04 02:12:57;;;;;;;0.30;0.30;;;;;;;-142.06;100.00;64312.41;5052087;28;20186;-81
2024/01/04 02:15:23;;;;;;;0.20;0.20;;;;;;;-142.06;100.00;64312.41;5053217;28;20202;-79
2024/01/04 02:17:50;;;;;;;1.17;0.20;;;;;;;-142.06;100.00;64312.41;5041213;28;20237;-79
2024/01/04 02:20:19;;;;;;;0.63;0.30;;;;;;;-142.06;100.00;64312.41;5051054;28;20241;-79
2024/01/04 02:22:45;;;;;;;0.30;0.20;;;;;;;-142.06;100.00;64312.41;5035285;28;20240;-80
2024/01/04 02:25:12;;;;;;;0.30;0.10;;;;;;;-142.06;100.00;64312.41;5053226;28;20222;-77
2024/01/04 02:27:39;;;;;;;0.83;0.20;;;;;;;-142.06;100.00;64312.41;5034498;28;20202;-79
2024/01/04 02:30:06;;;;;;;0.93;0.20;;;;;;;-142.06;100.00;64312.41;5053241;28;20693;-79
2024/01/04 02:32:33;;;;;;;0.30;0.20;;;;;;;-142.06;100.00;64312.41;5051086;28;20194;-79
2024/01/04 02:35:00;;;;;;;0.53;0.10;;;;;;;-142.06;100.00;64312.41;5050561;28;20207;-79
2024/01/04 02:37:27;;;;;;;0.20;0.10;;;;;;;-142.06;100.00;64312.41;5053585;28;20196;-80
2024/01/04 02:39:54;;;;;;;0.10;0.10;;;;;;;-142.06;100.00;64312.41;5051489;28;20222;-79
2024/01/04 02:42:21;;;;;;;0.37;0.10;;;;;;;-142.06;100.00;64312.41;5065512;28;20181;-78
2024/01/04 02:44:48;;;;;;;0.10;0.10;;;;;;;-142.06;100.00;64312.41;5060096;28;20212;-79
2024/01/04 02:47:14;;;;;;;0.30;0.20;;;;;;;-142.06;100.00;64312.41;5066976;28;20229;-79
2024/01/04 02:49:41;;;;;;;0.00;0.00;;;;;;;-142.06;100.00;64312.41;5057225;28;20650;-78
2024/01/04 02:52:10;;;;;;;0.20;0.10;;;;;;;-142.06;100.00;64312.41;5039112;28;20627;-79
2024/01/04 02:54:39;;;;;;;0.17;0.10;;;;;;;-142.06;100.00;64312.41;5060275;28;20271;-79
2024/01/04 02:57:05;;;;;;;1.50;0.10;;;;;;;-142.06;100.00;64312.41;5068514;28;20208;-80
2024/01/04 02:59:32;;;;;;;0.23;0.10;;;;;;;-142.06;100.00;64312.41;5088620;28;20279;-80
2024/01/04 03:01:59;;;;;;;0.10;0.00;;;;;;;-142.06;100.00;64312.41;5061855;28;20223;-78
2024/01/04 03:04:26;;;;;;;0.10;0.10;;;;;;;-142.06;100.00;64312.41;5036469;28;20202;-77
2024/01/04 03:06:53;;;;;;;0.20;0.10;;;;;;;-142.06;100.00;64312.41;5052359;28;20204;-79
2024/01/04 03:09:19;;;;;;;0.10;0.10;;;;;;;-142.06;100.00;64312.41;5055917;28;20654;-78
2024/01/04 03:11:47;;;;;;;0.67;0.10;;;;;;;-142.06;100.00;64312.41;5037901;28;20206;-79
2024/01/04 03:14:14;;;;;;;0.40;0.10;;;;;;;-142.06;100.00;64312.41;5049408;28;20247;-78
2024/01/04 03:16:40;;;;;;;0.10;0.10;;;;;;;-142.06;100.00;64312.41;5066248;28;20196;-79
2024/01/04 03:19:07;;;;;;;0.07;0.07;;;;;;;-142.06;100.00;64312.41;5063565;28;20206;-80
2024/01/04 03:21:34;;;;;;;0.20;0.17;;;;;;;-142.06;100.00;64312.41;5042575;28;20233;-80
2024/01/04 03:24:01;;;;;;;0.30;0.10;;;;;;;-142.06;100.00;64312.41;5051980;28;20432;-81
2024/01/04 03:26:28;;;;;;;0.00;0.00;;;;;;;-142.06;100.00;64312.41;5051875;28;20200;-81
2024/01/04 03:28:55;;;;;;;0.00;0.00;;;;;;;-142.06;100.00;64312.41;5034483;28;20201;-81
2024/01/04 03:31:21;;;;;;;0.10;0.00;;;;;;;-142.06;100.00;64312.41;5037082;28;20224;-81
2024/01/04 03:33:49;;;;;;;1.20;0.10;;;;;;;-142.06;100.00;64312.41;5055226;28;20266;-78
2024/01/04 03:36:16;;;;;;;0.30;0.10;;;;;;;-142.06;100.00;64312.41;5053771;28;20193;-80
2024/01/04 03:38:45;;;;;;;0.27;0.10;;;;;;;-142.06;100.00;64312.41;5035396;28;20243;-82
2024/01/04 03:41:12;;;;;;;0.20;0.10;;;;;;;-142.06;100.00;64312.41;5052057;28;20316;-79
2024/01/04 03:43:39;;;;;;;0.17;0.10;;;;;;;-142.06;100.00;64312.41;5052875;28;20190;-80
2024/01/04 03:46:08;;;;;;;1.03;0.17;;;;;;;-142.06;100.00;64312.41;5050236;28;20236;-82
2024/01/04 03:48:35;;;;;;;0.43;0.10;;;;;;;-142.06;100.00;64312.41;5048835;28;20208;-81
2024/01/04 03:51:02;;;;;;;0.20;0.10;;;;;;;-142.06;100.00;64312.41;5050355;28;20193;-78
2024/01/04 03:53:29;;;;;;;0.40;0.20;;;;;;;-142.06;100.00;64312.41;5051395;28;20186;-77
2024/01/04 03:55:56;;;;;;;0.27;0.10;;;;;;;-142.06;100.00;64312.41;5051499;28;20190;-78
2024/01/04 03:58:23;;;;;;;0.27;0.10;;;;;;;-142.06;100.00;64312.41;5050281;28;20201;-79
2024/01/04 04:00:53;;;;;;;0.00;0.00;;;;;;;-142.06;100.00;64312.41;5033050;28;20217;-78
2024/01/04 04:03:20;;;;;;;0.47;0.10;;;;;;;-142.06;100.00;64312.41;5052619;28;20189;-80
2024/01/04 04:05:47;;;;;;;0.30;0.10;;;;;;;-142.06;100.00;64312.41;5016941;28;20428;-78
2024/01/04 04:08:14;;;;;;;0.87;0.20;;;;;;;-142.06;100.00;64312.41;5033966;28;20189;-80
2024/01/04 04:10:41;;;;;;;0.50;0.33;;;;;;;-142.06;100.00;64312.41;5049997;28;20212;-80
2024/01/04 04:13:08;;;;;;;0.53;0.10;;;;;;;-142.06;100.00;64312.41;5050074;28;20225;-78
2024/01/04 04:15:34;;;;;;;0.53;0.10;;;;;;;-142.06;100.00;64312.41;5020868;28;20222;-79
2024/01/04 04:18:02;;;;;;;0.53;0.10;;;;;;;-142.06;100.00;64312.41;5050009;28;20654;-79
2024/01/04 04:20:29;;;;;;;0.10;0.00;;;;;;;-142.06;100.00;64312.41;5051665;28;20217;-79
2024/01/04 04:22:57;;;;;;;0.20;0.20;;;;;;;-142.06;100.00;64312.41;5051005;28;20201;-80
2024/01/04 04:25:24;;;;;;;0.70;0.13;;;;;;;-142.06;100.00;64312.41;5054756;28;20185;-79
2024/01/04 04:27:50;;;;;;;0.40;0.20;;;;;;;-142.06;100.00;64312.41;5053563;28;20197;-79
2024/01/04 04:30:19;;;;;;;0.10;0.10;;;;;;;-142.06;100.00;64312.41;5038899;28;20197;-81
2024/01/04 04:32:46;;;;;;;0.13;0.07;;;;;;;-142.06;100.00;64312.41;5054717;28;20193;-79
2024/01/04 04:35:14;;;;;;;0.10;0.10;;;;;;;-142.06;100.00;64312.41;5053676;28;20221;-79
2024/01/04 04:37:40;;;;;;;0.50;0.23;;;;;;;-142.06;100.00;64312.41;5052998;28;20274;-79
2024/01/04 04:40:08;;;;;;;0.10;0.07;;;;;;;-142.06;100.00;64312.41;5054071;28;20194;-79
2024/01/04 04:42:38;;;;;;;1.07;0.20;;;;;;;-142.06;100.00;64312.41;5054724;28;20205;-80
2024/01/04 04:45:06;;;;;;;0.83;0.23;;;;;;;-142.06;100.00;64312.41;5054794;28;20197;-79
2024/01/04 04:47:34;;;;;;;0.30;0.10;;;;;;;-142.06;100.00;64312.41;5054222;28;20237;-81
2024/01/04 04:50:01;;;;;;;0.50;0.10;;;;;;;-142.06;100.00;64312.41;5036824;28;20267;-79
2024/01/04 04:52:28;;;;;;;1.03;0.30;;;;;;;-142.06;100.00;64312.41;5034055;28;20201;-79
2024/01/04 04:54:54;;;;;;;1.20;0.20;;;;;;;-142.06;100.00;64312.41;5053633;28;20208;-81
2024/01/04 04:57:21;;;;;;;0.47;0.20;;;;;;;-142.06;100.00;64312.41;5052799;28;20212;-78
2024/01/04 04:59:48;;;;;;;0.47;0.20;;;;;;;-142.06;100.00;64312.41;5035742;28;20235;-77
2024/01/04 05:02:15;;;;;;;0.33;0.13;;;;;;;-142.06;100.00;64312.41;5051588;28;20283;-80
2024/01/04 05:04:43;;;;;;;1.60;0.10;;;;;;;-142.06;100.00;64312.41;5054592;28;20220;-78
2024/01/04 05:07:10;;;;;;;0.67;0.10;;;;;;;-142.06;100.00;64312.41;5054394;28;20267;-79
2024/01/04 05:09:37;;;;;;;0.27;0.10;;;;;;;-142.06;100.00;64312.41;5053314;28;20213;-80
2024/01/04 05:12:04;;;;;;;0.50;0.20;;;;;;;-142.06;100.00;64312.41;5052636;28;20209;-80
2024/01/04 05:14:31;;;;;;;0.17;0.10;;;;;;;-142.06;100.00;64312.41;5054291;28;20193;-78
2024/01/04 05:16:57;;;;;;;0.20;0.20;;;;;;;-142.06;100.00;64312.41;5051211;28;20289;-78
2024/01/04 05:19:24;;;;;;;1.03;0.23;;;;;;;-142.06;100.00;64312.41;5033418;28;20212;-79
2024/01/04 05:21:52;;;;;;;0.83;0.10;;;;;;;-142.06;100.00;64312.41;5053987;28;20210;-79
2024/01/04 05:24:19;;;;;;;0.20;0.10;;;;;;;-142.06;100.00;64312.41;5053884;28;20189;-80
2024/01/04 05:26:45;;;;;;;0.47;0.20;;;;;;;-142.06;100.00;64312.41;5049924;28;20201;-80
2024/01/04 05:29:12;;;;;;;0.80;0.20;;;;;;;-142.06;100.00;64312.41;5052547;28;20682;-79
2024/01/04 05:31:39;;;;;;;0.50;0.30;;;;;;;-142.06;100.00;64312.41;5053122;28;20204;-82
2024/01/04 05:34:06;;;;;;;0.20;0.13;;;;;;;-142.06;100.00;64312.41;5052454;28;20221;-79
2024/01/04 05:36:33;;;;;;;0.47;0.20;;;;;;;-142.06;100.00;64312.41;5052838;28;20198;-81
2024/01/04 05:38:59;;;;;;;0.80;0.30;;;;;;;-142.06;100.00;64312.41;5052739;28;20186;-79
2024/01/04 05:41:26;;;;;;;0.50;0.10;;;;;;;-142.06;100.00;64312.41;5056526;28;20271;-77
2024/01/04 05:43:53;;;;;;;0.30;0.20;;;;;;;-142.06;100.00;64312.41;5054132;28;20681;-79
2024/01/04 05:46:20;;;;;;;0.20;0.17;;;;;;;-142.06;100.00;64312.41;5053773;28;20701;-80
2024/01/04 05:48:47;;;;;;;0.43;0.20;;;;;;;-142.06;100.00;64312.41;5054063;28;20204;-79
2024/01/04 05:51:15;;;;;;;0.20;0.20;;;;;;;-142.06;100.00;64312.41;5052476;28;20189;-79
2024/01/04 05:53:42;;;;;;;0.40;0.10;;;;;;;-142.06;100.00;64312.41;5035909;28;20201;-78
2024/01/04 05:56:09;;;;;;;0.87;0.20;;;;;;;-142.06;100.00;64312.41;5052678;28;20189;-80
2024/01/04 05:58:35;;;;;;;0.43;0.10;;;;;;;-142.06;100.00;64312.41;5053899;28;20205;-79
2024/01/04 06:01:02;;;;;;;0.27;0.20;;;;;;;-142.06;100.00;64312.41;5036036;28;20213;-79
2024/01/04 06:03:29;;;;;;;1.17;0.20;;;;;;;-142.06;100.00;64312.41;5049936;28;20198;-80
2024/01/04 06:05:56;;;;;;;0.50;0.20;;;;;;;-142.06;100.00;64312.41;5050391;28;20284;-80
2024/01/04 06:08:23;;;;;;;2.10;0.20;;;;;;;-142.06;100.00;64312.41;5032529;28;20289;-80
2024/01/04 06:10:50;;;;;;;0.30;0.20;;;;;;;-142.06;100.00;64312.41;5052621;28;20194;-80
2024/01/04 06:13:18;;;;;;;0.10;0.10;;;;;;;-142.06;100.00;64312.41;5051015;28;20205;-79
2024/01/04 06:15:45;;;;;;;0.60;0.20;;;;;;;-142.06;100.00;64312.41;5051066;28;20251;-78
2024/01/04 06:18:12;;;;;;;0.60;0.17;;;;;;;-142.06;100.00;64312.41;5053867;28;20615;-80
2024/01/04 06:20:39;;;;;;;0.77;0.20;;;;;;;-142.06;100.00;64312.41;5053600;28;20259;-79
2024/01/04 06:23:06;;;;;;;0.60;0.20;;;;;;;-142.06;100.00;64312.41;5054856;28;20186;-79
2024/01/04 06:25:33;;;;;;;1.33;0.20;;;;;;;-142.06;100.00;64312.41;5052642;28;20198;-77
2024/01/04 06:27:59;;;;;;;0.43;0.30;;;;;;;-142.06;100.00;64312.41;5051774;28;20201;-79
2024/01/04 06:30:27;;;;;;;0.10;0.10;;;;;;;-142.06;100.00;64312.41;5052686;28;20197;-80
2024/01/04 06:32:54;;;;;;;0.73;0.10;;;;;;;-142.06;100.00;64312.41;5051614;28;20682;-79
2024/01/04 06:35:21;;;;;;;0.33;0.20;;;;;;;-142.06;100.00;64312.41;5051565;28;20225;-79
2024/01/04 06:37:48;;;;;;;0.00;0.00;;;;;;;-142.06;100.00;64312.41;5051084;28;20197;-79
2024/01/04 06:40:16;;;;;;;0.30;0.10;;;;;;;-142.06;100.00;64312.41;5051196;28;20198;-83
2024/01/04 06:42:44;;;;;;;0.40;0.30;;;;;;;-142.06;100.00;64312.41;5050678;28;20245;-80
2024/01/04 06:45:11;;;;;;;0.10;0.10;;;;;;;-142.06;100.00;64312.41;5052248;28;20190;-79
2024/01/04 06:47:38;;;;;;;0.40;0.10;;;;;;;-142.06;100.00;64312.41;5053298;28;20233;-79
2024/01/04 06:50:06;;;;;;;0.57;0.10;;;;;;;-142.06;100.00;64312.41;5054245;28;20246;-80
2024/01/04 06:52:44;;;;;;;0.00;0.00;;;;;;;-142.06;100.00;64312.41;5051494;28;20235;-80
2024/01/04 06:55:12;;;;;;;0.47;0.20;;;;;;;-142.06;100.00;64312.41;5052783;28;20190;-78
2024/01/04 06:57:39;;;;;;;0.40;0.20;;;;;;;-142.06;100.00;64312.41;5050789;28;20197;-81
2024/01/04 07:00:10;;;;;;;0.70;0.20;;;;;;;-142.06;100.00;64312.41;5051208;28;20193;-79
2024/01/04 07:02:37;;;;;;;0.47;0.10;;;;;;;-142.06;100.00;64312.41;5034526;28;20229;-79
2024/01/04 07:05:05;;;;;;;0.37;0.10;;;;;;;-142.06;100.00;64312.41;5034681;28;20213;-79
2024/01/04 07:07:33;;;;;;;0.17;0.10;;;;;;;-142.06;100.00;64312.41;5034047;28;20197;-80
2024/01/04 07:10:00;;;;;;;0.63;0.20;;;;;;;-142.06;100.00;64312.41;5046096;28;20273;-79
2024/01/04 07:12:27;;;;;;;0.20;0.17;;;;;;;-142.06;100.00;64312.41;5044361;28;20284;-79
2024/01/04 07:14:55;;;;;;;0.27;0.10;;;;;;;-142.06;100.00;64312.41;5051001;28;20193;-79
2024/01/04 07:17:22;;;;;;;0.10;0.10;;;;;;;-142.06;100.00;64312.41;5051968;28;20263;-79
2024/01/04 07:19:50;;;;;;;0.60;0.17;;;;;;;-142.06;100.00;64312.41;5043663;28;20190;-79
2024/01/04 07:22:17;;;;;;;0.60;0.20;;;;;;;-142.06;100.00;64312.41;5051903;28;20271;-78
2024/01/04 07:24:44;;;;;;;0.40;0.30;;;;;;;-142.06;100.00;64312.41;5051931;28;20193;-81
2024/01/04 07:27:10;;;;;;;0.20;0.10;;;;;;;-142.06;100.00;64312.41;5051977;28;20189;-80
2024/01/04 07:29:37;;;;;;;0.10;0.10;;;;;;;-142.06;100.00;64312.41;5051767;28;20190;-78
2024/01/04 07:32:05;;;;;;;0.20;0.10;;;;;;;-142.06;100.00;64312.41;5034348;28;20241;-78
2024/01/04 07:34:33;;;;;;;3.13;2.00;;;;;;;-142.06;100.00;64312.41;5051711;28;20221;-79
2024/01/04 07:37:00;;;;;;;0.63;0.20;;;;;;;-142.06;100.00;64312.41;5051818;28;20201;-79
2024/01/04 07:39:27;;;;;;;0.33;0.10;;;;;;;-142.06;100.00;64312.41;5051550;28;20185;-79
2024/01/04 07:41:54;;;;;;;0.13;0.10;;;;;;;-142.06;100.00;64312.41;5051779;28;20716;-80
2024/01/04 07:44:21;;;;;;;0.87;0.10;;;;;;;-142.06;100.00;64312.41;5050773;28;20283;-79
2024/01/04 07:46:47;;;;;;;0.37;0.10;;;;;;;-142.06;100.00;64312.41;5051946;28;20229;-79
2024/01/04 07:49:14;;;;;;;0.40;0.20;;;;;;;-142.06;100.00;64312.41;5033750;28;20228;-79
2024/01/04 07:51:42;;;;;;;0.70;0.27;;;;;;;-142.06;100.00;64312.41;5050443;28;20228;-79
2024/01/04 07:54:08;;;;;;;0.23;0.10;;;;;;;-142.06;100.00;64312.41;5051474;28;20193;-79
2024/01/04 07:56:35;;;;;;;0.13;0.10;;;;;;;-142.06;100.00;64312.41;5031538;28;20192;-80
2024/01/04 07:59:02;;;;;;;0.20;0.10;;;;;;;-142.06;100.00;64312.41;5051696;28;20193;-78
2024/01/04 08:01:29;;;;;;;0.23;0.20;;;;;;;-142.06;100.00;64312.41;5051685;28;20218;-78
2024/01/04 08:03:56;;;;;;;0.30;0.20;;;;;;;-142.06;100.00;64312.41;5049996;28;20232;-79
2024/01/04 08:06:23;;;;;;;0.20;0.13;;;;;;;-142.06;100.00;64312.41;5051351;28;20197;-78
2024/01/04 08:08:52;;;;;;;0.83;0.10;;;;;;;-142.06;100.00;64312.41;5049520;28;20193;-79
2024/01/04 08:11:19;;;;;;;0.53;0.20;;;;;;;-142.06;100.00;64312.41;5046129;28;20427;-80
2024/01/04 08:13:46;;;;;;;0.60;0.10;;;;;;;-142.06;100.00;64312.41;5048596;28;20205;-79
2024/01/04 08:16:13;;;;;;;0.83;0.10;;;;;;;-142.06;100.00;64312.41;5041995;28;20197;-79
2024/01/04 08:18:39;;;;;;;0.23;0.13;;;;;;;-142.06;100.00;64312.41;5041618;28;20205;-79
2024/01/04 08:21:06;;;;;;;1.73;0.30;;;;;;;-142.06;100.00;64312.41;5044722;28;20249;-79
2024/01/04 08:23:33;;;;;;;1.37;0.20;;;;;;;-142.06;100.00;64312.41;5050863;28;20197;-78
2024/01/04 08:26:04;;;;;;;0.30;0.20;;;;;;;-142.06;100.00;64312.41;5050207;28;20198;-80
2024/01/04 08:28:31;;;;;;;0.23;0.20;;;;;;;-142.06;100.00;64312.41;5051391;28;20292;-79
2024/01/04 08:30:58;;;;;;;1.13;0.30;;;;;;;-142.06;100.00;64312.41;5051491;28;20186;-79
2024/01/04 08:33:27;;;;;;;0.67;0.20;;;;;;;-142.06;100.00;64312.41;5049867;28;20201;-79
2024/01/04 08:35:54;;;;;;;1.87;0.10;;;;;;;-142.06;100.00;64312.41;5050010;28;20186;-79
2024/01/04 08:38:21;;;;;;;0.40;0.10;;;;;;;-142.06;100.00;64312.41;5051116;28;20195;-78
2024/01/04 08:40:48;;;;;;;0.60;0.20;;;;;;;-142.06;100.00;64312.41;5050217;28;20191;-80
2024/01/04 08:43:15;;;;;;;0.10;0.10;;;;;;;-142.06;100.00;64312.41;5052533;28;20217;-78
2024/01/04 08:45:42;;;;;;;0.30;0.23;;;;;;;-142.06;100.00;64312.41;5051484;28;20237;-83
2024/01/04 08:48:09;;;;;;;0.37;0.13;;;;;;;-142.06;100.00;64312.41;5029234;28;20198;-79
2024/01/04 08:50:36;;;;;;;0.50;0.30;;;;;;;-142.06;100.00;64312.41;5050228;28;20204;-79
2024/01/04 08:53:03;;;;;;;0.50;0.20;;;;;;;-142.06;100.00;64312.41;5051012;28;20255;-80
2024/01/04 08:55:30;;;;;;;0.50;0.20;;;;;;;-142.06;100.00;64312.41;5050425;28;20199;-79
2024/01/04 08:57:58;;;;;;;0.20;0.20;;;;;;;-142.06;100.00;64312.41;5050964;28;20197;-80
2024/01/04 09:00:25;;;;;;;1.43;0.10;;;;;;;-142.06;100.00;64312.41;5051882;28;20193;-80
2024/01/04 09:02:52;;;;;;;0.57;0.20;;;;;;;-142.06;100.00;64312.41;5052028;28;20284;-80
2024/01/04 09:05:19;;;;;;;0.70;0.20;;;;;;;-142.06;100.00;64312.41;5041368;28;20191;-79
2024/01/04 09:07:46;;;;;;;0.50;0.10;;;;;;;-142.06;100.00;64312.41;5051002;28;20190;-78
2024/01/04 09:10:13;;;;;;;0.30;0.10;;;;;;;-142.06;100.00;64312.41;5052766;28;20193;-78
2024/01/04 09:12:40;;;;;;;0.40;0.17;;;;;;;-142.06;100.00;64312.41;5053986;28;20716;-77
2024/01/04 09:15:11;;;;;;;0.30;0.10;;;;;;;-142.06;100.00;64312.41;5054682;28;20205;-80
2024/01/04 09:17:38;;;;;;;0.20;0.10;;;;;;;-142.06;100.00;64312.41;5053876;28;20276;-79
2024/01/04 09:20:05;;;;;;;0.20;0.20;;;;;;;-142.06;100.00;64312.41;5052242;28;20272;-78
2024/01/04 09:22:32;;;;;;;0.77;0.10;;;;;;;-142.06;100.00;64312.41;5051011;28;20209;-79
2024/01/04 09:24:59;;;;;;;0.63;0.10;;;;;;;-142.06;100.00;64312.41;5052009;28;20231;-79
2024/01/04 09:27:26;;;;;;;0.10;0.10;;;;;;;-142.06;100.00;64312.41;5052045;28;20189;-78
2024/01/04 09:29:53;;;;;;;0.00;0.00;;;;;;;-142.06;100.00;64312.41;5051291;28;20200;-79
2024/01/04 09:32:20;;;;;;;0.10;0.03;;;;;;;-142.06;100.00;64312.41;5052805;28;20204;-78
2024/01/04 09:34:47;;;;;;;0.13;0.10;;;;;;;-142.06;100.00;64312.41;5057821;28;20262;-77
2024/01/04 09:37:13;;;;;;;0.47;0.10;;;;;;;-142.06;100.00;64312.41;5051152;28;20208;-79
2024/01/04 09:39:40;;;;;;;0.30;0.10;;;;;;;-142.06;100.00;64312.41;5049853;28;20665;-79
2024/01/04 09:42:09;;;;;;;0.27;0.10;;;;;;;-142.06;100.00;64312.41;5052571;28;20232;-78
2024/01/04 09:44:36;;;;;;;0.00;0.00;;;;;;;-142.06;100.00;64312.41;5057356;28;20216;-79
2024/01/04 09:47:08;;;;;;;0.47;0.10;;;;;;;-142.06;100.00;64312.41;5053473;28;20225;-79
2024/01/04 09:49:37;;;;;;;0.63;0.10;;;;;;;-142.06;100.00;64312.41;5036351;28;20688;-81
2024/01/04 09:52:05;;;;;;;0.10;0.00;;;;;;;-142.06;100.00;64312.41;5053740;28;20268;-79
2024/01/04 09:54:32;;;;;;;0.20;0.10;;;;;;;-142.06;100.00;64312.41;5052467;28;20194;-78
2024/01/04 09:57:00;;;;;;;0.10;0.07;;;;;;;-142.06;100.00;64312.41;5057744;28;20200;-81
2024/01/04 09:59:29;;;;;;;0.10;0.10;;;;;;;-142.06;100.00;64312.41;5053001;28;20220;-79
2024/01/04 10:01:58;;;;;;;0.00;0.00;;;;;;;-142.06;100.00;64312.41;5052193;28;20213;-78
2024/01/04 10:04:25;;;;;;;0.20;0.10;;;;;;;-142.06;100.00;64312.41;5053002;28;20190;-77
2024/01/04 10:06:53;;;;;;;0.20;0.10;;;;;;;-142.06;100.00;64312.41;5053485;28;20681;-78
2024/01/04 10:09:32;;;;;;;0.07;0.00;;;;;;;-142.06;100.00;64312.41;5052884;28;20193;-78
2024/01/04 10:12:02;;;;;;;0.40;0.00;;;;;;;-142.06;100.00;64312.41;5049696;28;20263;-80
2024/01/04 10:14:30;;;;;;;0.10;0.10;;;;;;;-142.06;100.00;64312.41;5053872;28;20193;-78
2024/01/04 10:16:57;;;;;;;0.00;0.00;;;;;;;-142.06;100.00;64312.41;5032232;28;20197;-78
2024/01/04 10:19:25;;;;;;;0.20;0.10;;;;;;;-142.06;100.00;64312.41;5050268;28;20665;-80
2024/01/04 10:21:52;;;;;;;0.10;0.10;;;;;;;-142.06;100.00;64312.41;5047727;28;20186;-79
2024/01/04 10:24:23;;;;;;;0.10;0.10;;;;;;;-142.06;100.00;64312.41;5034177;28;20248;-79
2024/01/04 10:26:58;;;;;;;0.20;0.10;;;;;;;-142.06;100.00;64312.41;5046364;28;20248;-79
2024/01/04 10:29:26;;;;;;;0.37;0.13;;;;;;;-142.06;100.00;64312.41;5031963;28;20219;-80
2024/01/04 10:32:00;;;;;;;0.17;0.03;;;;;;;-142.06;100.00;64312.41;5044629;28;20202;-80
2024/01/04 10:34:27;;;;;;;1.30;0.10;;;;;;;-142.06;100.00;64312.41;5048262;28;20217;-79
2024/01/04 10:36:57;;;;;;;0.00;0.00;;;;;;;-142.06;100.00;64312.41;5032255;28;20285;-78
2024/01/04 10:39:24;;;;;;;0.87;0.00;;;;;;;-142.06;100.00;64312.41;5034070;28;20198;-80
2024/01/04 10:42:01;;;;;;;0.10;0.07;;;;;;;-142.06;100.00;64312.41;5046026;28;20201;-79
2024/01/04 10:44:29;;;;;;;0.33;0.10;;;;;;;-142.06;100.00;64312.41;5049668;28;20198;-79
2024/01/04 10:46:56;;;;;;;0.00;0.00;;;;;;;-142.06;100.00;64312.41;5050425;28;20229;-79
2024/01/04 10:49:24;;;;;;;0.20;0.10;;;;;;;-142.06;100.00;64312.41;5053177;28;20194;-79
2024/01/04 10:51:53;;;;;;;0.10;0.10;;;;;;;-142.06;100.00;64312.41;5053882;28;20201;-79
2024/01/04 10:54:20;;;;;;;1.17;0.17;;;;;;;-142.06;100.00;64312.41;5051973;28;20208;-78
2024/01/04 10:56:47;;;;;;;0.63;0.10;;;;;;;-142.06;100.00;64312.41;5050764;28;20225;-80
2024/01/04 10:59:16;;;;;;;0.20;0.10;;;;;;;-142.06;100.00;64312.41;5034751;28;20207;-79
2024/01/04 11:01:43;;;;;;;0.33;0.10;;;;;;;-142.06;100.00;64312.41;5053189;28;20197;-80
2024/01/04 11:04:11;;;;;;;0.50;0.17;;;;;;;-142.06;100.00;64312.41;5051607;28;20218;-79
2024/01/04 11:06:42;;;;;;;0.20;0.20;;;;;;;-142.06;100.00;64312.41;5034479;28;20929;-78
2024/01/04 11:09:09;;;;;;;0.30;0.13;;;;;;;-142.06;100.00;64312.41;5050315;28;20221;-78